Time;durP1;ratioP1;P1;durP2;ratioP2;P2;SDS_P1;SDS_P2;PMS_P1;PMS_P2;Temp;Humidity;BMP_temperature;BMP_pressure;BME280_temperature;BME280_humidity;BME280_pressure;Samples;Min_cycle;Max_cycle;Signal;HPM_P1;HPM_P2
2023/05/15 00:01:38;;;;;;;;;;;10.70;99.90;;;;;;5073958;28;19928;-71
2023/05/15 00:04:03;;;;;;;;;;;10.70;99.90;;;;;;5072556;28;19924;-71
2023/05/15 00:06:32;;;;;;;;;;;10.80;99.90;;;;;;5061092;28;20392;-71
2023/05/15 00:08:58;;;;;;;;;;;10.70;99.90;;;;;;5073004;28;19924;-71
2023/05/15 00:11:26;;;;;;;;;;;10.70;99.90;;;;;;5048314;28;19924;-71
2023/05/15 00:13:52;;;;;;;;;;;10.70;99.90;;;;;;5060324;28;19932;-71
2023/05/15 00:16:18;;;;;;;;;;;10.80;99.90;;;;;;5061138;28;19928;-71
2023/05/15 00:18:43;;;;;;;;;;;10.70;99.90;;;;;;5052499;28;20302;-72
2023/05/15 00:21:09;;;;;;;;;;;10.70;99.90;;;;;;5035650;28;20398;-71
2023/05/15 00:23:35;;;;;;;;;;;10.70;99.90;;;;;;5055629;28;20024;-71
2023/05/15 00:26:00;;;;;;;;;;;10.70;99.90;;;;;;5039828;28;19925;-71
2023/05/15 00:28:26;;;;;;;;;;;10.70;99.90;;;;;;5059622;28;19925;-71
2023/05/15 00:30:51;;;;;;;;;;;10.70;99.90;;;;;;5042542;28;20335;-71
2023/05/15 00:33:17;;;;;;;;;;;10.70;99.90;;;;;;5065615;28;19970;-71
2023/05/15 00:35:42;;;;;;;;;;;10.80;99.90;;;;;;5067707;28;20398;-71
2023/05/15 00:38:08;;;;;;;;;;;10.80;99.90;;;;;;5063557;28;19986;-71
2023/05/15 00:40:35;;;;;;;;;;;10.70;99.90;;;;;;5063628;28;19924;-70
2023/05/15 00:43:00;;;;;;;;;;;10.70;99.90;;;;;;5052992;28;19970;-71
2023/05/15 00:45:27;;;;;;;;;;;10.80;99.90;;;;;;5062971;28;19929;-71
2023/05/15 00:47:53;;;;;;;;;;;10.70;99.90;;;;;;5073270;28;20293;-71
2023/05/15 00:50:18;;;;;;;;;;;10.70;99.90;;;;;;5068995;28;20401;-71
2023/05/15 00:52:44;;;;;;;;;;;10.70;99.90;;;;;;5069199;28;20021;-71
2023/05/15 00:55:10;;;;;;;;;;;10.80;99.90;;;;;;5061412;28;19924;-71
2023/05/15 00:57:36;;;;;;;;;;;10.80;99.90;;;;;;5066004;28;20290;-70
2023/05/15 01:00:09;;;;;;;;;;;10.80;99.90;;;;;;5074273;28;20371;-70
2023/05/15 01:02:35;;;;;;;;;;;10.80;99.90;;;;;;5067662;28;19925;-71
2023/05/15 01:05:01;;;;;;;;;;;10.80;99.90;;;;;;5068621;28;19958;-71
2023/05/15 01:07:29;;;;;;;;;;;10.70;99.90;;;;;;5044646;28;20047;-71
2023/05/15 01:09:55;;;;;;;;;;;10.80;99.90;;;;;;5044109;28;19928;-71
2023/05/15 01:12:23;;;;;;;;;;;10.70;99.90;;;;;;5059847;28;19971;-72
2023/05/15 01:14:49;;;;;;;;;;;10.70;99.90;;;;;;5045175;28;19925;-72
2023/05/15 01:17:14;;;;;;;;;;;10.70;99.90;;;;;;5055367;28;19971;-71
2023/05/15 01:19:40;;;;;;;;;;;10.70;99.90;;;;;;5066393;28;20023;-72
2023/05/15 01:22:29;;;;;;;;;;;10.70;99.90;;;;;;5068894;28;20019;-72
2023/05/15 01:25:06;;;;;;;;;;;10.60;99.90;;;;;;5063786;28;19924;-71
2023/05/15 01:27:36;;;;;;;;;;;10.60;99.90;;;;;;5063911;28;19975;-71
2023/05/15 01:30:16;;;;;;;;;;;10.60;99.90;;;;;;5050613;28;19924;-70
2023/05/15 01:32:46;;;;;;;;;;;10.70;99.90;;;;;;5072084;28;19924;-71
2023/05/15 01:35:31;;;;;;;;;;;10.60;99.90;;;;;;5060138;28;19925;-71
2023/05/15 01:38:06;;;;;;;;;;;10.50;99.90;;;;;;5058468;28;19924;-71
2023/05/15 01:40:31;;;;;;;;;;;10.40;99.90;;;;;;5066782;28;20007;-71
2023/05/15 01:43:00;;;;;;;;;;;10.40;99.90;;;;;;5058982;28;20012;-71
2023/05/15 01:45:27;;;;;;;;;;;10.40;99.90;;;;;;5067162;28;21906;-71
2023/05/15 01:47:53;;;;;;;;;;;10.30;99.90;;;;;;5067363;28;19925;-71
2023/05/15 01:50:19;;;;;;;;;;;10.30;99.90;;;;;;5072488;28;20010;-71
2023/05/15 01:52:47;;;;;;;;;;;10.30;99.90;;;;;;5066337;28;20378;-71
2023/05/15 01:55:13;;;;;;;;;;;10.30;99.90;;;;;;5070335;28;20023;-71
2023/05/15 01:57:40;;;;;;;;;;;10.30;99.90;;;;;;5063078;28;20586;-71
2023/05/15 02:00:26;;;;;;;;;;;10.30;99.90;;;;;;5066737;28;20016;-72
2023/05/15 02:02:52;;;;;;;;;;;10.40;99.90;;;;;;5057995;28;19925;-72
2023/05/15 02:05:18;;;;;;;;;;;10.40;99.90;;;;;;5058076;28;19932;-71
2023/05/15 02:07:44;;;;;;;;;;;10.30;99.90;;;;;;5054433;28;19924;-71
2023/05/15 02:10:11;;;;;;;;;;;10.20;99.90;;;;;;5063929;28;20011;-71
2023/05/15 02:12:37;;;;;;;;;;;10.10;99.90;;;;;;5066508;28;19932;-71
2023/05/15 02:15:03;;;;;;;;;;;10.10;99.90;;;;;;5064055;28;20019;-71
2023/05/15 02:17:28;;;;;;;;;;;10.20;99.90;;;;;;5063854;28;19931;-71
2023/05/15 02:19:54;;;;;;;;;;;10.10;99.90;;;;;;5061341;28;19932;-71
2023/05/15 02:22:20;;;;;;;;;;;10.00;99.90;;;;;;5061979;28;19939;-71
2023/05/15 02:24:45;;;;;;;;;;;10.00;99.90;;;;;;5058707;28;19924;-71
2023/05/15 02:27:25;;;;;;;;;;;9.90;99.90;;;;;;5065365;28;19925;-71
2023/05/15 02:30:03;;;;;;;;;;;9.90;99.90;;;;;;5058348;28;20283;-71
2023/05/15 02:32:31;;;;;;;;;;;10.00;99.90;;;;;;5069177;28;20327;-70
2023/05/15 02:35:15;;;;;;;;;;;10.00;99.90;;;;;;5063210;28;19970;-71
2023/05/15 02:37:45;;;;;;;;;;;9.90;99.90;;;;;;5057645;28;19925;-72
2023/05/15 02:40:12;;;;;;;;;;;10.00;99.90;;;;;;5063520;28;19931;-71
2023/05/15 02:42:38;;;;;;;;;;;10.00;99.90;;;;;;5066251;28;19924;-71
2023/05/15 02:45:04;;;;;;;;;;;10.00;99.90;;;;;;5060043;28;20323;-70
2023/05/15 02:47:32;;;;;;;;;;;9.90;99.90;;;;;;5070266;28;20337;-71
2023/05/15 02:49:58;;;;;;;;;;;10.00;99.90;;;;;;5067271;28;20289;-71
2023/05/15 02:52:23;;;;;;;;;;;9.90;99.90;;;;;;5066256;28;20007;-70
2023/05/15 02:54:49;;;;;;;;;;;9.90;99.90;;;;;;5069181;28;20260;-71
2023/05/15 02:57:14;;;;;;;;;;;9.90;99.90;;;;;;5070396;28;19930;-71
2023/05/15 02:59:40;;;;;;;;;;;9.80;99.90;;;;;;5063334;28;19925;-72
2023/05/15 03:02:06;;;;;;;;;;;9.90;99.90;;;;;;5045633;28;19928;-71
2023/05/15 03:04:31;;;;;;;;;;;9.90;99.90;;;;;;5056679;28;20384;-71
2023/05/15 03:06:57;;;;;;;;;;;9.90;99.90;;;;;;5071526;28;19925;-70
2023/05/15 03:09:22;;;;;;;;;;;9.90;99.90;;;;;;5072297;28;19924;-70
2023/05/15 03:11:48;;;;;;;;;;;9.90;99.90;;;;;;5064546;28;19948;-70
2023/05/15 03:14:13;;;;;;;;;;;9.90;99.90;;;;;;5068399;28;19928;-70
2023/05/15 03:16:39;;;;;;;;;;;9.90;99.90;;;;;;5047402;28;19932;-70
2023/05/15 03:19:04;;;;;;;;;;;9.90;99.90;;;;;;5071768;28;19939;-70
2023/05/15 03:21:30;;;;;;;;;;;9.90;99.90;;;;;;5060205;28;20019;-74
2023/05/15 03:23:56;;;;;;;;;;;9.80;99.90;;;;;;5053611;28;20006;-71
2023/05/15 03:26:22;;;;;;;;;;;9.80;99.90;;;;;;5054145;28;19940;-71
2023/05/15 03:28:47;;;;;;;;;;;9.80;99.90;;;;;;5065892;28;19939;-71
2023/05/15 03:31:13;;;;;;;;;;;9.70;99.90;;;;;;5062846;28;19925;-71
2023/05/15 03:33:39;;;;;;;;;;;9.70;99.90;;;;;;5072195;28;19924;-71
2023/05/15 03:36:05;;;;;;;;;;;9.70;99.90;;;;;;5075000;28;19924;-71
2023/05/15 03:38:31;;;;;;;;;;;9.60;99.90;;;;;;5073139;28;20015;-71
2023/05/15 03:40:56;;;;;;;;;;;9.60;99.90;;;;;;5068207;28;19928;-71
2023/05/15 03:43:22;;;;;;;;;;;9.50;99.90;;;;;;5070336;28;19925;-71
2023/05/15 03:45:48;;;;;;;;;;;9.50;99.90;;;;;;5058012;28;20271;-72
2023/05/15 03:48:13;;;;;;;;;;;9.50;99.90;;;;;;5046004;28;20362;-71
2023/05/15 03:50:39;;;;;;;;;;;9.50;99.90;;;;;;5066481;28;20015;-71
2023/05/15 03:53:04;;;;;;;;;;;9.50;99.90;;;;;;5069902;28;20330;-71
2023/05/15 03:55:30;;;;;;;;;;;9.60;99.90;;;;;;5063391;28;20032;-71
2023/05/15 03:57:56;;;;;;;;;;;9.60;99.90;;;;;;5048493;28;19931;-71
2023/05/15 04:00:22;;;;;;;;;;;9.60;99.90;;;;;;5065990;28;20297;-71
2023/05/15 04:02:48;;;;;;;;;;;9.50;99.90;;;;;;5076984;28;20320;-71
2023/05/15 04:05:14;;;;;;;;;;;9.50;99.90;;;;;;5066138;28;20023;-71
2023/05/15 04:07:39;;;;;;;;;;;9.60;99.90;;;;;;5064336;28;19925;-71
2023/05/15 04:10:05;;;;;;;;;;;9.60;99.90;;;;;;5071652;28;19924;-71
2023/05/15 04:12:32;;;;;;;;;;;9.60;99.90;;;;;;5061733;28;20007;-72
2023/05/15 04:14:58;;;;;;;;;;;9.60;99.90;;;;;;5063985;28;20386;-72
2023/05/15 04:17:24;;;;;;;;;;;9.70;99.90;;;;;;5083613;28;19924;-72
2023/05/15 04:19:49;;;;;;;;;;;9.70;99.90;;;;;;5061485;28;20008;-72
2023/05/15 04:22:15;;;;;;;;;;;9.80;99.90;;;;;;5062226;28;19932;-72
2023/05/15 04:24:40;;;;;;;;;;;9.90;99.90;;;;;;5059459;28;19935;-72
2023/05/15 04:27:06;;;;;;;;;;;9.90;99.90;;;;;;5068146;28;19924;-72
2023/05/15 04:29:31;;;;;;;;;;;9.90;99.90;;;;;;5064395;28;19925;-72
2023/05/15 04:31:57;;;;;;;;;;;9.90;99.90;;;;;;5070222;28;20405;-72
2023/05/15 04:34:23;;;;;;;;;;;9.90;99.90;;;;;;5049259;28;20031;-71
2023/05/15 04:36:49;;;;;;;;;;;10.00;99.90;;;;;;5062598;28;20307;-71
2023/05/15 04:39:15;;;;;;;;;;;10.10;99.90;;;;;;5066271;28;19924;-72
2023/05/15 04:41:41;;;;;;;;;;;10.10;99.90;;;;;;5061785;28;19977;-72
2023/05/15 04:44:07;;;;;;;;;;;10.10;99.90;;;;;;5067192;28;19924;-72
2023/05/15 04:46:33;;;;;;;;;;;10.10;99.90;;;;;;5058041;28;20339;-71
2023/05/15 04:48:59;;;;;;;;;;;10.10;99.90;;;;;;5060005;28;19925;-72
2023/05/15 04:51:24;;;;;;;;;;;10.10;99.90;;;;;;5053537;28;20000;-73
2023/05/15 04:53:50;;;;;;;;;;;10.10;99.90;;;;;;5036441;28;20289;-70
2023/05/15 04:56:16;;;;;;;;;;;10.10;99.90;;;;;;5060441;28;19932;-70
2023/05/15 04:58:41;;;;;;;;;;;10.30;99.90;;;;;;5072928;28;19983;-71
2023/05/15 05:01:07;;;;;;;;;;;10.30;99.90;;;;;;5066768;28;20653;-71
2023/05/15 05:03:32;;;;;;;;;;;10.30;99.90;;;;;;5059476;28;19970;-70
2023/05/15 05:05:58;;;;;;;;;;;10.30;99.90;;;;;;5071405;28;20378;-70
2023/05/15 05:08:23;;;;;;;;;;;10.50;99.90;;;;;;5057649;28;19990;-70
2023/05/15 05:10:53;;;;;;;;;;;10.50;99.90;;;;;;5061931;28;19924;-71
2023/05/15 05:13:19;;;;;;;;;;;10.50;99.90;;;;;;5056131;28;19925;-71
2023/05/15 05:15:45;;;;;;;;;;;10.50;99.90;;;;;;5058852;28;19935;-70
2023/05/15 05:18:10;;;;;;;;;;;10.60;99.90;;;;;;5058111;28;19971;-70
2023/05/15 05:20:36;;;;;;;;;;;10.50;99.90;;;;;;5038587;28;20016;-70
2023/05/15 05:23:01;;;;;;;;;;;10.60;99.90;;;;;;5043134;28;19925;-71
2023/05/15 05:25:27;;;;;;;;;;;10.70;99.90;;;;;;5060169;28;19978;-72
2023/05/15 05:27:52;;;;;;;;;;;10.70;99.90;;;;;;5060916;28;19989;-71
2023/05/15 05:30:18;;;;;;;;;;;10.80;99.90;;;;;;5061886;28;20374;-70
2023/05/15 05:32:44;;;;;;;;;;;10.80;99.90;;;;;;5055109;28;19931;-70
2023/05/15 05:35:09;;;;;;;;;;;10.80;99.90;;;;;;5031154;28;20336;-70
2023/05/15 05:37:35;;;;;;;;;;;10.90;99.90;;;;;;5065701;28;19929;-70
2023/05/15 05:40:01;;;;;;;;;;;10.90;99.90;;;;;;5058271;28;19933;-70
2023/05/15 05:42:26;;;;;;;;;;;11.00;99.90;;;;;;5061223;28;20267;-70
2023/05/15 05:44:52;;;;;;;;;;;10.90;99.90;;;;;;5056602;28;20040;-70
2023/05/15 05:47:17;;;;;;;;;;;11.00;99.90;;;;;;5062738;28;20710;-71
2023/05/15 05:49:46;;;;;;;;;;;11.00;99.90;;;;;;5058478;28;19931;-71
2023/05/15 05:52:11;;;;;;;;;;;11.00;99.90;;;;;;5064919;28;20015;-71
2023/05/15 05:54:37;;;;;;;;;;;11.10;99.90;;;;;;5067754;28;20019;-71
2023/05/15 05:57:03;;;;;;;;;;;11.10;99.90;;;;;;5067188;28;20365;-71
2023/05/15 05:59:29;;;;;;;;;;;11.20;99.90;;;;;;5061625;28;19925;-71
2023/05/15 06:01:54;;;;;;;;;;;11.30;99.90;;;;;;5068349;28;19964;-70
2023/05/15 06:04:20;;;;;;;;;;;11.40;99.90;;;;;;5033149;28;19924;-71
2023/05/15 06:06:45;;;;;;;;;;;11.40;99.90;;;;;;5068776;28;20019;-70
2023/05/15 06:09:14;;;;;;;;;;;11.40;99.90;;;;;;5065514;28;19979;-71
2023/05/15 06:11:39;;;;;;;;;;;11.50;99.90;;;;;;5054000;28;19971;-71
2023/05/15 06:14:07;;;;;;;;;;;11.60;99.90;;;;;;5074812;28;19928;-71
2023/05/15 06:16:32;;;;;;;;;;;11.80;99.90;;;;;;5066089;28;19924;-71
2023/05/15 06:18:58;;;;;;;;;;;11.90;99.90;;;;;;5056144;28;19932;-72
2023/05/15 06:21:23;;;;;;;;;;;12.10;99.90;;;;;;5053551;28;19932;-72
2023/05/15 06:23:49;;;;;;;;;;;12.20;99.90;;;;;;5062112;28;19925;-72
2023/05/15 06:26:14;;;;;;;;;;;12.20;99.90;;;;;;5072122;28;19925;-70
2023/05/15 06:28:40;;;;;;;;;;;12.20;99.90;;;;;;5081029;28;19924;-71
2023/05/15 06:31:05;;;;;;;;;;;12.30;99.90;;;;;;5084355;28;19925;-71
2023/05/15 06:33:31;;;;;;;;;;;12.50;99.90;;;;;;5085879;28;19931;-71
2023/05/15 06:35:56;;;;;;;;;;;12.70;99.90;;;;;;5074917;28;19928;-71
2023/05/15 06:38:22;;;;;;;;;;;13.00;99.90;;;;;;5057368;28;19925;-70
2023/05/15 06:40:47;;;;;;;;;;;13.10;99.90;;;;;;5060650;28;20302;-71
2023/05/15 06:43:13;;;;;;;;;;;13.00;99.90;;;;;;5069556;28;19925;-71
2023/05/15 06:45:38;;;;;;;;;;;12.90;99.90;;;;;;5055493;28;19966;-71
2023/05/15 06:48:04;;;;;;;;;;;12.80;99.90;;;;;;5067822;28;19932;-71
2023/05/15 06:50:30;;;;;;;;;;;12.80;99.90;;;;;;5063877;28;19924;-72
2023/05/15 06:52:55;;;;;;;;;;;12.70;99.90;;;;;;5072731;28;19928;-71
2023/05/15 06:55:21;;;;;;;;;;;12.70;99.90;;;;;;5076683;28;19924;-71
2023/05/15 06:57:46;;;;;;;;;;;12.80;99.90;;;;;;5065430;28;19931;-72
2023/05/15 07:00:12;;;;;;;;;;;13.00;99.90;;;;;;5055255;28;20019;-71
2023/05/15 07:02:38;;;;;;;;;;;13.10;99.90;;;;;;5055762;28;19970;-71
2023/05/15 07:05:03;;;;;;;;;;;13.00;99.90;;;;;;5058957;28;19925;-71
2023/05/15 07:07:29;;;;;;;;;;;13.10;99.90;;;;;;5063054;28;19928;-70
2023/05/15 07:09:54;;;;;;;;;;;13.10;99.90;;;;;;5074137;28;20033;-71
2023/05/15 07:12:20;;;;;;;;;;;13.00;99.90;;;;;;5069412;28;19924;-70
2023/05/15 07:14:45;;;;;;;;;;;12.90;99.90;;;;;;5065300;28;19932;-71
2023/05/15 07:17:11;;;;;;;;;;;12.90;99.90;;;;;;5062529;28;20422;-71
2023/05/15 07:19:37;;;;;;;;;;;12.90;99.90;;;;;;5074392;28;19924;-71
2023/05/15 07:22:02;;;;;;;;;;;13.10;99.90;;;;;;5073781;28;19949;-71
2023/05/15 07:24:28;;;;;;;;;;;13.20;99.90;;;;;;5070738;28;19932;-70
2023/05/15 07:26:55;;;;;;;;;;;13.40;99.90;;;;;;5053943;28;19925;-70
2023/05/15 07:29:21;;;;;;;;;;;13.50;99.90;;;;;;5059268;28;19924;-71
2023/05/15 07:31:47;;;;;;;;;;;13.70;99.90;;;;;;5064233;28;19931;-70
2023/05/15 07:34:12;;;;;;;;;;;13.70;99.90;;;;;;5074577;28;19997;-70
2023/05/15 07:36:38;;;;;;;;;;;13.70;99.90;;;;;;5071745;28;20350;-71
2023/05/15 07:39:03;;;;;;;;;;;13.70;99.90;;;;;;5073170;28;19924;-71
2023/05/15 07:41:32;;;;;;;;;;;13.80;99.90;;;;;;5062466;28;19925;-70
2023/05/15 07:43:57;;;;;;;;;;;13.90;99.90;;;;;;5087299;28;19925;-71
2023/05/15 07:46:23;;;;;;;;;;;13.90;99.90;;;;;;5063840;28;19935;-71
2023/05/15 07:48:48;;;;;;;;;;;14.00;99.90;;;;;;5072181;28;20332;-70
2023/05/15 07:51:14;;;;;;;;;;;14.10;99.90;;;;;;5071394;28;19924;-70
2023/05/15 07:53:39;;;;;;;;;;;14.10;99.90;;;;;;5057286;28;19931;-70
2023/05/15 07:56:05;;;;;;;;;;;14.00;99.90;;;;;;5069502;28;19925;-71
2023/05/15 07:58:30;;;;;;;;;;;14.10;99.90;;;;;;5065888;28;20397;-70
2023/05/15 08:00:56;;;;;;;;;;;14.20;99.90;;;;;;5054474;28;19924;-70
2023/05/15 08:03:21;;;;;;;;;;;14.30;99.90;;;;;;5055884;28;21435;-70
2023/05/15 08:05:47;;;;;;;;;;;14.30;99.90;;;;;;5072978;28;20015;-70
2023/05/15 08:08:13;;;;;;;;;;;14.40;99.90;;;;;;5069757;28;19935;-71
2023/05/15 08:10:38;;;;;;;;;;;14.30;99.90;;;;;;5071608;28;19925;-72
2023/05/15 08:13:04;;;;;;;;;;;14.40;99.90;;;;;;5044028;28;19924;-71
2023/05/15 08:15:29;;;;;;;;;;;14.60;99.90;;;;;;5074032;28;20083;-71
2023/05/15 08:17:55;;;;;;;;;;;14.70;99.90;;;;;;5074779;28;19970;-71
2023/05/15 08:20:21;;;;;;;;;;;14.80;99.90;;;;;;5068126;28;19925;-71
2023/05/15 08:22:46;;;;;;;;;;;14.80;99.90;;;;;;5053206;28;20012;-70
2023/05/15 08:25:12;;;;;;;;;;;14.80;99.90;;;;;;5054094;28;19929;-70
2023/05/15 08:27:37;;;;;;;;;;;14.80;99.90;;;;;;5061658;28;19967;-71
2023/05/15 08:30:03;;;;;;;;;;;14.70;99.90;;;;;;5047978;28;20034;-70
2023/05/15 08:32:28;;;;;;;;;;;14.70;99.90;;;;;;5066036;28;19929;-72
2023/05/15 08:34:54;;;;;;;;;;;14.70;99.90;;;;;;5056312;28;19927;-70
2023/05/15 08:37:20;;;;;;;;;;;14.70;99.90;;;;;;5021741;28;20310;-70
2023/05/15 08:39:45;;;;;;;;;;;14.90;99.90;;;;;;5068253;28;20367;-71
2023/05/15 08:42:22;;;;;;;;;;;15.00;99.90;;;;;;5059457;28;19924;-71
2023/05/15 08:44:49;;;;;;;;;;;15.20;99.90;;;;;;5073157;28;19924;-70
2023/05/15 08:47:14;;;;;;;;;;;15.30;99.90;;;;;;5073611;28;19959;-71
2023/05/15 08:49:55;;;;;;;;;;;15.30;99.90;;;;;;5070793;28;19976;-71
2023/05/15 08:52:20;;;;;;;;;;;15.20;99.90;;;;;;5069848;28;19924;-71
2023/05/15 08:54:47;;;;;;;;;;;15.30;99.90;;;;;;5064244;28;19962;-71
2023/05/15 08:57:13;;;;;;;;;;;15.20;99.90;;;;;;5055763;28;19967;-72
2023/05/15 08:59:39;;;;;;;;;;;15.30;99.90;;;;;;5034767;28;20305;-71
2023/05/15 09:02:04;;;;;;;;;;;15.40;99.90;;;;;;5075355;28;19935;-71
2023/05/15 09:04:30;;;;;;;;;;;15.30;99.90;;;;;;5054373;28;20407;-71
2023/05/15 09:06:57;;;;;;;;;;;15.40;99.90;;;;;;5052604;28;20408;-71
2023/05/15 09:09:23;;;;;;;;;;;15.50;99.90;;;;;;5052384;28;19936;-71
2023/05/15 09:11:49;;;;;;;;;;;15.40;99.90;;;;;;5067058;28;19925;-72
2023/05/15 09:14:15;;;;;;;;;;;15.40;99.90;;;;;;5055161;28;19931;-71
2023/05/15 09:16:40;;;;;;;;;;;15.40;99.90;;;;;;5048916;28;19951;-72
2023/05/15 09:19:06;;;;;;;;;;;15.50;99.90;;;;;;5072940;28;20267;-71
2023/05/15 09:21:32;;;;;;;;;;;15.50;99.90;;;;;;5055555;28;19924;-71
2023/05/15 09:24:16;;;;;;;;;;;15.60;99.90;;;;;;5061441;28;20362;-71
2023/05/15 09:26:43;;;;;;;;;;;15.80;99.90;;;;;;5045259;28;19924;-72
2023/05/15 09:29:08;;;;;;;;;;;15.90;99.90;;;;;;5063597;28;19924;-72
2023/05/15 09:31:34;;;;;;;;;;;15.80;99.90;;;;;;5071177;28;19924;-71
2023/05/15 09:34:00;;;;;;;;;;;16.00;99.90;;;;;;5071843;28;20015;-72
2023/05/15 09:36:27;;;;;;;;;;;16.10;99.90;;;;;;5072377;28;19982;-71
2023/05/15 09:38:57;;;;;;;;;;;16.10;99.90;;;;;;5072843;28;19925;-72
2023/05/15 09:41:26;;;;;;;;;;;16.10;99.90;;;;;;5038019;28;19944;-72
2023/05/15 09:43:55;;;;;;;;;;;16.10;99.90;;;;;;5059988;28;19956;-70
2023/05/15 09:46:21;;;;;;;;;;;16.10;99.90;;;;;;5046824;28;19925;-71
2023/05/15 09:48:46;;;;;;;;;;;16.30;99.90;;;;;;5066165;28;19951;-70
2023/05/15 09:51:16;;;;;;;;;;;16.20;99.90;;;;;;5052333;28;20278;-71
2023/05/15 09:53:41;;;;;;;;;;;16.30;99.90;;;;;;5042342;28;19924;-72
2023/05/15 09:56:08;;;;;;;;;;;16.40;99.90;;;;;;5068496;28;19952;-70
2023/05/15 09:58:34;;;;;;;;;;;16.50;99.90;;;;;;5067012;28;19951;-71
2023/05/15 10:01:01;;;;;;;;;;;16.60;99.90;;;;;;5059485;28;19925;-71
2023/05/15 10:03:27;;;;;;;;;;;16.70;99.90;;;;;;5061435;28;19987;-71
2023/05/15 10:06:00;;;;;;;;;;;16.90;99.90;;;;;;5072518;28;20366;-71
2023/05/15 10:08:27;;;;;;;;;;;16.90;99.90;;;;;;5070643;28;19947;-71
2023/05/15 10:10:53;;;;;;;;;;;16.80;99.90;;;;;;5070251;28;19932;-71
2023/05/15 10:13:19;;;;;;;;;;;16.90;99.90;;;;;;5049532;28;19932;-72
2023/05/15 10:15:48;;;;;;;;;;;17.00;99.90;;;;;;5056000;28;20333;-69
2023/05/15 10:18:15;;;;;;;;;;;17.10;99.90;;;;;;5060220;28;19925;-72
2023/05/15 10:20:40;;;;;;;;;;;17.10;99.90;;;;;;5041177;28;20418;-71
2023/05/15 10:23:07;;;;;;;;;;;17.10;99.90;;;;;;5066422;28;19924;-71
2023/05/15 10:25:59;;;;;;;;;;;17.20;99.90;;;;;;5044605;28;19928;-71
2023/05/15 10:28:25;;;;;;;;;;;17.50;99.90;;;;;;5054010;28;19936;-71
2023/05/15 10:30:51;;;;;;;;;;;17.60;99.90;;;;;;5051927;28;19979;-71
2023/05/15 10:33:18;;;;;;;;;;;17.70;99.90;;;;;;5051776;28;20336;-71
2023/05/15 10:35:44;;;;;;;;;;;17.90;99.90;;;;;;5052791;28;19932;-71
2023/05/15 10:38:10;;;;;;;;;;;18.00;99.90;;;;;;5062097;28;19936;-72
2023/05/15 10:40:36;;;;;;;;;;;18.00;99.90;;;;;;5092197;28;19979;-71
2023/05/15 10:43:02;;;;;;;;;;;18.00;99.90;;;;;;5081946;28;20275;-71
2023/05/15 10:45:28;;;;;;;;;;;17.90;99.90;;;;;;5069941;28;19936;-71
2023/05/15 10:47:54;;;;;;;;;;;17.90;99.90;;;;;;5060319;28;20372;-71
2023/05/15 10:50:20;;;;;;;;;;;17.90;99.90;;;;;;5033910;28;20005;-71
2023/05/15 10:52:49;;;;;;;;;;;17.90;99.90;;;;;;5055555;28;19978;-71
2023/05/15 10:55:15;;;;;;;;;;;17.80;99.90;;;;;;5061331;28;19924;-71
2023/05/15 10:57:41;;;;;;;;;;;17.70;99.90;;;;;;5065710;28;19976;-72
2023/05/15 11:00:22;;;;;;;;;;;17.50;99.90;;;;;;5074830;28;19972;-71
2023/05/15 11:02:48;;;;;;;;;;;17.50;99.90;;;;;;5075437;28;19924;-71
2023/05/15 11:05:13;;;;;;;;;;;17.40;99.90;;;;;;5057526;28;20443;-71
2023/05/15 11:07:39;;;;;;;;;;;17.30;99.90;;;;;;5075072;28;19932;-71
2023/05/15 11:10:28;;;;;;;;;;;17.20;99.90;;;;;;5074516;28;19925;-71
2023/05/15 11:12:54;;;;;;;;;;;17.00;99.90;;;;;;5059018;28;19928;-71
2023/05/15 11:15:20;;;;;;;;;;;16.80;99.90;;;;;;5061661;28;19972;-71
2023/05/15 11:18:00;;;;;;;;;;;16.70;99.90;;;;;;5066810;28;20379;-70
2023/05/15 11:20:33;;;;;;;;;;;16.90;99.90;;;;;;5058928;28;20366;-71
2023/05/15 11:22:59;;;;;;;;;;;17.10;99.90;;;;;;5071604;28;20310;-71
2023/05/15 11:25:28;;;;;;;;;;;17.30;99.90;;;;;;5073776;28;19924;-71
2023/05/15 11:27:54;;;;;;;;;;;17.40;99.90;;;;;;5075079;28;19946;-71
2023/05/15 11:30:21;;;;;;;;;;;17.50;99.90;;;;;;5056983;28;20629;-71
2023/05/15 11:32:46;;;;;;;;;;;17.50;99.90;;;;;;5037801;28;19969;-71
2023/05/15 11:35:20;;;;;;;;;;;17.30;99.90;;;;;;5065339;28;19936;-72
2023/05/15 11:37:50;;;;;;;;;;;17.10;99.90;;;;;;5033158;28;19931;-71
2023/05/15 11:40:20;;;;;;;;;;;17.00;99.90;;;;;;5093489;28;20070;-71
2023/05/15 11:42:57;;;;;;;;;;;17.00;99.90;;;;;;5072391;28;19932;-72
2023/05/15 11:45:23;;;;;;;;;;;16.90;99.90;;;;;;5054121;28;19924;-70
2023/05/15 11:47:48;;;;;;;;;;;16.80;99.90;;;;;;5054143;28;19925;-71
2023/05/15 11:50:15;;;;;;;;;;;16.80;99.90;;;;;;5070791;28;19936;-72
2023/05/15 11:52:41;;;;;;;;;;;16.90;99.90;;;;;;5073938;28;20400;-71
2023/05/15 11:55:07;;;;;;;;;;;17.10;99.90;;;;;;5073470;28;20378;-70
2023/05/15 11:57:32;;;;;;;;;;;17.10;99.90;;;;;;5053681;28;19924;-72
2023/05/15 11:59:58;;;;;;;;;;;17.30;99.90;;;;;;5064793;28;20297;-72
2023/05/15 12:02:23;;;;;;;;;;;17.40;99.90;;;;;;5054029;28;19931;-70
2023/05/15 12:04:50;;;;;;;;;;;17.30;99.90;;;;;;5047958;28;20279;-70
2023/05/15 12:07:16;;;;;;;;;;;17.20;99.90;;;;;;5067480;28;20309;-71
2023/05/15 12:09:42;;;;;;;;;;;16.90;99.90;;;;;;5072745;28;19950;-70
2023/05/15 12:12:11;;;;;;;;;;;16.90;99.90;;;;;;5073686;28;20270;-71
2023/05/15 12:14:38;;;;;;;;;;;16.90;99.90;;;;;;5080302;28;19946;-71
2023/05/15 12:17:04;;;;;;;;;;;17.00;99.90;;;;;;5067075;28;20015;-72
2023/05/15 12:19:30;;;;;;;;;;;17.10;99.90;;;;;;5065595;28;20378;-70
2023/05/15 12:21:56;;;;;;;;;;;17.10;99.90;;;;;;5069055;28;20437;-71
2023/05/15 12:24:21;;;;;;;;;;;17.20;99.90;;;;;;5041449;28;20000;-71
2023/05/15 12:26:47;;;;;;;;;;;17.10;99.90;;;;;;5068556;28;19924;-71
2023/05/15 12:29:13;;;;;;;;;;;17.10;99.90;;;;;;5072851;28;19928;-70
2023/05/15 12:31:38;;;;;;;;;;;17.00;99.90;;;;;;5056706;28;19932;-70
2023/05/15 12:34:04;;;;;;;;;;;17.20;99.90;;;;;;5055776;28;19932;-71
2023/05/15 12:36:30;;;;;;;;;;;17.20;99.90;;;;;;5073491;28;19925;-70
2023/05/15 12:38:56;;;;;;;;;;;17.30;99.90;;;;;;5062406;28;19931;-70
2023/05/15 12:41:26;;;;;;;;;;;17.40;99.90;;;;;;5046383;28;20032;-71
2023/05/15 12:43:51;;;;;;;;;;;17.40;99.90;;;;;;5082626;28;19924;-71
2023/05/15 12:46:20;;;;;;;;;;;17.30;99.90;;;;;;5072717;28;20457;-71
2023/05/15 12:48:46;;;;;;;;;;;17.30;99.90;;;;;;5064635;28;20020;-71
2023/05/15 12:51:15;;;;;;;;;;;17.40;99.90;;;;;;5062734;28;19928;-72
2023/05/15 12:53:41;;;;;;;;;;;17.30;99.90;;;;;;5061939;28;19975;-72
2023/05/15 12:56:07;;;;;;;;;;;17.30;99.90;;;;;;5059862;28;20366;-72
2023/05/15 12:58:33;;;;;;;;;;;17.30;99.90;;;;;;5062988;28;20386;-70
2023/05/15 13:01:01;;;;;;;;;;;17.30;99.90;;;;;;5066520;28;20065;-71
2023/05/15 13:03:27;;;;;;;;;;;17.30;99.90;;;;;;5061920;28;19932;-71
2023/05/15 13:05:53;;;;;;;;;;;17.30;99.90;;;;;;5058653;28;19937;-72
2023/05/15 13:08:19;;;;;;;;;;;17.30;99.90;;;;;;5059427;28;19929;-72
2023/05/15 13:10:45;;;;;;;;;;;17.20;99.90;;;;;;5058574;28;20384;-73
2023/05/15 13:13:11;;;;;;;;;;;17.20;99.90;;;;;;5023730;28;19935;-71
2023/05/15 13:15:38;;;;;;;;;;;17.00;99.90;;;;;;5040280;28;19925;-72
2023/05/15 13:18:05;;;;;;;;;;;16.90;99.90;;;;;;5059174;28;19924;-72
2023/05/15 13:20:35;;;;;;;;;;;16.90;99.90;;;;;;5046789;28;19924;-70
2023/05/15 13:23:01;;;;;;;;;;;16.80;99.90;;;;;;5071626;28;20023;-71
2023/05/15 13:25:29;;;;;;;;;;;16.60;99.90;;;;;;5066748;28;20422;-73
2023/05/15 13:27:59;;;;;;;;;;;16.40;99.90;;;;;;5030086;28;19964;-71
2023/05/15 13:30:25;;;;;;;;;;;16.30;99.90;;;;;;5066286;28;20018;-71
2023/05/15 13:32:51;;;;;;;;;;;16.30;99.90;;;;;;5064883;28;20432;-71
2023/05/15 13:35:16;;;;;;;;;;;16.40;99.90;;;;;;5071257;28;19931;-71
2023/05/15 13:37:42;;;;;;;;;;;16.50;99.90;;;;;;5083905;28;19977;-71
2023/05/15 13:40:08;;;;;;;;;;;16.60;99.90;;;;;;5054842;28;19950;-70
2023/05/15 13:42:35;;;;;;;;;;;16.70;99.90;;;;;;5053380;28;20290;-70
2023/05/15 13:45:01;;;;;;;;;;;16.90;99.90;;;;;;5052951;28;20397;-70
2023/05/15 13:47:27;;;;;;;;;;;16.80;99.90;;;;;;5059349;28;19963;-71
2023/05/15 13:49:52;;;;;;;;;;;16.50;99.90;;;;;;5063284;28;20359;-71
2023/05/15 13:52:18;;;;;;;;;;;16.40;99.90;;;;;;5060645;28;19951;-70
2023/05/15 13:54:44;;;;;;;;;;;16.30;99.90;;;;;;5040031;28;20306;-72
2023/05/15 13:57:09;;;;;;;;;;;16.30;99.90;;;;;;5058713;28;19920;-70
2023/05/15 13:59:35;;;;;;;;;;;16.20;99.90;;;;;;5060945;28;20041;-72
2023/05/15 14:02:00;;;;;;;;;;;16.10;99.90;;;;;;5062866;28;20404;-72
2023/05/15 14:04:26;;;;;;;;;;;16.00;99.90;;;;;;5065838;28;20054;-72
2023/05/15 14:06:51;;;;;;;;;;;16.00;99.90;;;;;;5067243;28;19929;-71
2023/05/15 14:09:17;;;;;;;;;;;16.00;99.90;;;;;;5070559;28;20010;-71
2023/05/15 14:11:42;;;;;;;;;;;15.80;99.90;;;;;;5081752;28;19925;-71
2023/05/15 14:14:08;;;;;;;;;;;15.60;99.90;;;;;;5061326;28;19928;-70
2023/05/15 14:16:33;;;;;;;;;;;15.50;99.90;;;;;;5052944;28;19925;-70